Time;durP1;ratioP1;P1;durP2;ratioP2;P2;SDS_P1;SDS_P2;PMS_P1;PMS_P2;Temp;Humidity;BMP_temperature;BMP_pressure;BME280_temperature;BME280_humidity;BME280_pressure;Samples;Min_cycle;Max_cycle;Signal;HPM_P1;HPM_P2
2021/12/19 00:00:31;;;;;;;9.93;6.40;;;;;;;;;;5010712;28;20124;-74
2021/12/19 00:03:08;;;;;;;9.73;6.28;;;;;;;;;;5011024;28;20056;-74
2021/12/19 00:08:28;;;;;;;10.88;6.07;;;;;;;;;;5010967;28;20028;-74
2021/12/19 00:10:53;;;;;;;12.10;6.45;;;;;;;;;;5010139;28;20092;-74
2021/12/19 00:13:19;;;;;;;11.13;7.07;;;;;;;;;;5009624;28;20041;-73
2021/12/19 00:15:44;;;;;;;10.82;5.90;;;;;;;;;;5010101;28;20029;-74
2021/12/19 00:18:10;;;;;;;11.98;6.50;;;;;;;;;;5009896;28;20117;-74
2021/12/19 00:20:35;;;;;;;12.68;6.65;;;;;;;;;;5010389;28;20022;-74
2021/12/19 00:23:00;;;;;;;10.32;6.18;;;;;;;;;;5010327;28;20029;-74
2021/12/19 00:25:26;;;;;;;10.35;6.25;;;;;;;;;;5009849;28;20026;-74
2021/12/19 00:27:51;;;;;;;9.43;5.97;;;;;;;;;;5010224;28;20124;-74
2021/12/19 00:30:16;;;;;;;9.60;6.22;;;;;;;;;;5010327;28;20022;-74
2021/12/19 00:32:42;;;;;;;11.80;6.22;;;;;;;;;;5010296;28;20018;-74
2021/12/19 00:35:08;;;;;;;10.70;6.22;;;;;;;;;;5009415;28;20036;-74
2021/12/19 00:37:33;;;;;;;10.63;6.63;;;;;;;;;;5010511;28;20034;-74
2021/12/19 00:39:58;;;;;;;9.88;6.80;;;;;;;;;;5009494;28;20076;-74
2021/12/19 00:42:28;;;;;;;10.05;6.45;;;;;;;;;;5010079;28;20025;-75
2021/12/19 00:44:53;;;;;;;10.18;6.47;;;;;;;;;;5010080;28;20033;-74
2021/12/19 00:47:18;;;;;;;11.73;7.13;;;;;;;;;;5010025;28;20387;-74
2021/12/19 00:49:44;;;;;;;11.05;7.10;;;;;;;;;;5010067;28;20095;-74
2021/12/19 00:52:09;;;;;;;12.40;7.13;;;;;;;;;;5010006;28;20034;-74
2021/12/19 00:54:34;;;;;;;12.55;7.40;;;;;;;;;;5008127;28;20033;-74
2021/12/19 00:57:00;;;;;;;11.88;6.82;;;;;;;;;;5009505;28;20127;-74
2021/12/19 00:59:25;;;;;;;10.93;6.40;;;;;;;;;;5009032;28;20435;-74
2021/12/19 01:01:50;;;;;;;9.15;6.00;;;;;;;;;;5008608;28;20025;-74
2021/12/19 01:04:18;;;;;;;11.75;6.45;;;;;;;;;;5009505;28;20022;-74
2021/12/19 01:06:46;;;;;;;9.32;5.65;;;;;;;;;;5009646;28;20451;-74
2021/12/19 01:09:12;;;;;;;8.70;5.93;;;;;;;;;;5009575;28;20109;-74
2021/12/19 01:11:38;;;;;;;10.02;6.15;;;;;;;;;;5009454;28;20121;-74
2021/12/19 01:14:04;;;;;;;10.48;6.53;;;;;;;;;;5009113;28;20026;-74
2021/12/19 01:16:30;;;;;;;9.43;6.20;;;;;;;;;;5009678;28;20025;-74
2021/12/19 01:18:56;;;;;;;9.25;6.10;;;;;;;;;;5009565;28;20476;-74
2021/12/19 01:21:21;;;;;;;8.63;6.03;;;;;;;;;;5009409;28;20065;-74
2021/12/19 01:23:47;;;;;;;10.70;6.50;;;;;;;;;;5008981;28;20030;-74
2021/12/19 01:26:12;;;;;;;9.43;6.25;;;;;;;;;;5008137;28;20037;-74
2021/12/19 01:28:39;;;;;;;9.18;5.93;;;;;;;;;;5010395;28;20284;-74
2021/12/19 01:31:04;;;;;;;9.15;6.45;;;;;;;;;;5013077;28;20033;-74
2021/12/19 01:33:30;;;;;;;8.70;6.45;;;;;;;;;;5013542;28;20030;-74
2021/12/19 01:35:55;;;;;;;8.70;5.90;;;;;;;;;;5012867;28;20028;-74
2021/12/19 01:38:21;;;;;;;8.75;6.10;;;;;;;;;;5013433;28;20030;-74
2021/12/19 01:40:46;;;;;;;7.53;5.88;;;;;;;;;;5013475;28;20105;-74
2021/12/19 01:43:11;;;;;;;8.50;6.38;;;;;;;;;;5013387;28;20022;-74
2021/12/19 01:45:39;;;;;;;10.05;6.18;;;;;;;;;;5012780;28;20037;-74
2021/12/19 01:48:09;;;;;;;9.90;6.55;;;;;;;;;;5011284;28;20029;-74
2021/12/19 01:50:35;;;;;;;10.13;6.70;;;;;;;;;;5013109;28;20032;-74
2021/12/19 01:53:02;;;;;;;10.32;6.22;;;;;;;;;;5013051;28;20022;-74
2021/12/19 01:55:27;;;;;;;10.90;6.82;;;;;;;;;;5012603;28;20025;-74
2021/12/19 01:57:53;;;;;;;8.10;5.80;;;;;;;;;;5013182;28;20038;-74
2021/12/19 02:00:34;;;;;;;7.72;5.97;;;;;;;;;;5012901;28;20038;-74
2021/12/19 02:03:00;;;;;;;9.23;6.13;;;;;;;;;;5012731;28;20033;-74
2021/12/19 02:05:27;;;;;;;10.73;6.45;;;;;;;;;;5012328;28;20107;-74
2021/12/19 02:07:54;;;;;;;9.20;6.25;;;;;;;;;;5012961;28;20442;-74
2021/12/19 02:10:25;;;;;;;10.18;7.03;;;;;;;;;;5012607;28;20041;-74
2021/12/19 02:12:52;;;;;;;10.63;7.07;;;;;;;;;;5012273;28;20202;-74
2021/12/19 02:15:20;;;;;;;11.00;7.10;;;;;;;;;;5011943;28;20040;-74
2021/12/19 02:17:47;;;;;;;10.82;6.97;;;;;;;;;;5012544;28;20330;-74
2021/12/19 02:20:14;;;;;;;10.43;7.18;;;;;;;;;;5010950;28;20107;-74
2021/12/19 02:22:40;;;;;;;11.10;7.45;;;;;;;;;;5012052;28;20036;-74
2021/12/19 02:25:06;;;;;;;9.55;6.65;;;;;;;;;;5012136;28;20034;-74
2021/12/19 02:27:32;;;;;;;9.45;6.47;;;;;;;;;;5012359;28;20026;-74
2021/12/19 02:29:58;;;;;;;10.20;6.82;;;;;;;;;;5011848;28;20502;-74
2021/12/19 02:32:25;;;;;;;10.90;7.78;;;;;;;;;;5011743;28;20030;-74
2021/12/19 02:34:53;;;;;;;10.85;7.28;;;;;;;;;;5012140;28;20026;-74
2021/12/19 02:37:53;;;;;;;10.52;6.70;;;;;;;;;;5012454;28;20495;-74
2021/12/19 02:48:11;;;;;;;9.82;6.53;;;;;;;;;;5012216;28;20100;-73
2021/12/19 02:50:37;;;;;;;10.13;6.68;;;;;;;;;;5012046;28;20105;-73
2021/12/19 02:53:03;;;;;;;9.13;6.30;;;;;;;;;;5012062;28;20026;-74
2021/12/19 02:55:28;;;;;;;9.63;6.53;;;;;;;;;;5011443;28;20032;-73
2021/12/19 02:57:53;;;;;;;10.52;6.85;;;;;;;;;;5011900;28;20033;-73
2021/12/19 03:00:23;;;;;;;9.65;6.82;;;;;;;;;;5011080;28;20112;-73
2021/12/19 03:02:49;;;;;;;10.30;6.93;;;;;;;;;;5011823;28;20041;-73
2021/12/19 03:05:15;;;;;;;9.52;6.97;;;;;;;;;;5011335;28;20387;-74
2021/12/19 03:07:41;;;;;;;10.57;6.90;;;;;;;;;;5010447;28;20030;-74
2021/12/19 03:18:05;;;;;;;9.55;6.05;;;;;;;;;;5011352;28;20041;-73
2021/12/19 03:20:32;;;;;;;9.93;6.57;;;;;;;;;;5011292;28;20149;-73
2021/12/19 03:23:01;;;;;;;9.13;6.40;;;;;;;;;;5011040;28;20030;-73
2021/12/19 03:25:28;;;;;;;8.73;6.28;;;;;;;;;;5011179;28;20022;-74
2021/12/19 03:27:54;;;;;;;10.45;6.82;;;;;;;;;;5011198;28;20172;-73
2021/12/19 03:30:20;;;;;;;9.48;6.22;;;;;;;;;;5010980;28;20069;-74
2021/12/19 03:32:46;;;;;;;9.68;6.45;;;;;;;;;;5011435;28;20061;-73
2021/12/19 03:35:11;;;;;;;8.95;5.95;;;;;;;;;;5010243;28;20026;-73
2021/12/19 03:37:37;;;;;;;6.75;4.93;;;;;;;;;;5011267;28;20028;-73
2021/12/19 03:40:09;;;;;;;6.50;5.00;;;;;;;;;;5011012;28;20026;-73
2021/12/19 03:42:39;;;;;;;7.25;4.68;;;;;;;;;;5011168;28;20030;-73
2021/12/19 03:45:07;;;;;;;7.55;4.97;;;;;;;;;;5010509;28;20037;-73
2021/12/19 03:47:32;;;;;;;6.82;5.43;;;;;;;;;;5011278;28;20144;-73
2021/12/19 03:49:57;;;;;;;7.95;5.45;;;;;;;;;;5011156;28;20105;-73
2021/12/19 03:52:23;;;;;;;8.40;6.38;;;;;;;;;;5009899;28;20629;-74
2021/12/19 03:54:48;;;;;;;10.50;7.20;;;;;;;;;;5010758;28;20025;-73
2021/12/19 03:57:13;;;;;;;9.93;7.10;;;;;;;;;;5010724;28;20468;-74
2021/12/19 03:59:41;;;;;;;8.73;6.68;;;;;;;;;;5010705;28;20037;-73
2021/12/19 04:02:06;;;;;;;10.68;6.95;;;;;;;;;;4990830;28;20488;-73
2021/12/19 04:04:36;;;;;;;8.25;6.50;;;;;;;;;;4991165;28;20160;-73
2021/12/19 04:07:01;;;;;;;10.20;7.03;;;;;;;;;;4990793;28;20026;-74
2021/12/19 04:09:27;;;;;;;9.48;6.60;;;;;;;;;;5008853;28;20476;-73
2021/12/19 04:11:55;;;;;;;9.90;6.70;;;;;;;;;;5010377;28;20037;-73
2021/12/19 04:14:20;;;;;;;9.43;6.35;;;;;;;;;;5010440;28;20050;-73
2021/12/19 04:16:46;;;;;;;8.60;6.30;;;;;;;;;;5010225;28;20468;-73
2021/12/19 04:19:11;;;;;;;7.80;5.68;;;;;;;;;;5010359;28;20044;-73
2021/12/19 04:21:37;;;;;;;8.30;5.97;;;;;;;;;;5010295;28;20025;-73
2021/12/19 04:24:02;;;;;;;8.90;5.90;;;;;;;;;;5009593;28;20026;-73
2021/12/19 04:26:27;;;;;;;9.70;5.82;;;;;;;;;;5009766;28;20034;-73
2021/12/19 04:28:53;;;;;;;8.73;6.03;;;;;;;;;;5009900;28;20053;-73
2021/12/19 04:31:18;;;;;;;11.13;7.10;;;;;;;;;;5010625;28;20132;-73
2021/12/19 04:33:43;;;;;;;11.93;7.53;;;;;;;;;;5010494;28;20047;-73
2021/12/19 04:36:12;;;;;;;11.45;7.10;;;;;;;;;;5009929;28;20048;-73
2021/12/19 04:39:10;;;;;;;12.70;8.07;;;;;;;;;;5010027;28;20021;-74
2021/12/19 04:58:47;;;;;;;12.30;7.68;;;;;;;;;;4990273;28;20065;-73
2021/12/19 05:06:53;;;;;;;9.35;6.70;;;;;;;;;;5009642;28;20058;-73
2021/12/19 05:14:19;;;;;;;9.35;5.88;;;;;;;;;;5009860;28;20144;-73
2021/12/19 05:16:46;;;;;;;10.50;6.35;;;;;;;;;;5009349;28;20021;-73
2021/12/19 05:19:35;;;;;;;9.88;6.35;;;;;;;;;;5009264;28;20395;-73
2021/12/19 05:22:02;;;;;;;10.95;7.15;;;;;;;;;;5009735;28;20119;-74
2021/12/19 05:27:06;;;;;;;10.88;7.03;;;;;;;;;;5009194;28;20037;-73
2021/12/19 05:29:32;;;;;;;9.90;6.18;;;;;;;;;;5009541;28;20439;-74
2021/12/19 05:31:58;;;;;;;10.15;6.68;;;;;;;;;;5009674;28;20455;-73
2021/12/19 05:34:23;;;;;;;9.80;5.88;;;;;;;;;;5009050;28;20030;-74
2021/12/19 05:47:36;;;;;;;10.10;6.43;;;;;;;;;;5009228;28;20517;-73
2021/12/19 05:50:03;;;;;;;13.57;7.60;;;;;;;;;;5009185;28;20014;-74
2021/12/19 05:52:28;;;;;;;13.60;8.38;;;;;;;;;;5008941;28;20051;-73
2021/12/19 05:54:54;;;;;;;13.63;7.78;;;;;;;;;;5009021;28;20413;-73
2021/12/19 05:57:20;;;;;;;13.88;8.07;;;;;;;;;;5008899;28;20173;-73
2021/12/19 05:59:45;;;;;;;17.70;9.30;;;;;;;;;;5009256;28;20034;-73
2021/12/19 06:02:10;;;;;;;14.20;8.80;;;;;;;;;;5008189;28;20116;-73
2021/12/19 06:04:36;;;;;;;14.75;8.90;;;;;;;;;;5008601;28;20033;-73
2021/12/19 06:07:01;;;;;;;14.60;8.27;;;;;;;;;;5008716;28;20026;-73
2021/12/19 06:09:26;;;;;;;14.52;8.35;;;;;;;;;;5008774;28;20060;-73
2021/12/19 06:11:51;;;;;;;14.82;8.43;;;;;;;;;;5009149;28;20026;-73
2021/12/19 06:14:17;;;;;;;17.67;9.52;;;;;;;;;;5009115;28;20053;-73
2021/12/19 06:16:42;;;;;;;15.00;9.02;;;;;;;;;;5013258;28;20017;-74
2021/12/19 06:19:08;;;;;;;13.80;8.50;;;;;;;;;;5012668;28;20491;-74
2021/12/19 06:21:33;;;;;;;16.98;9.90;;;;;;;;;;5012678;28;20526;-73
2021/12/19 06:23:58;;;;;;;17.67;9.27;;;;;;;;;;5011983;28;20061;-73
2021/12/19 06:26:23;;;;;;;17.05;8.60;;;;;;;;;;5011802;28;20376;-74
2021/12/19 06:28:49;;;;;;;17.90;10.05;;;;;;;;;;5012953;28;20057;-73
2021/12/19 06:31:17;;;;;;;17.90;9.40;;;;;;;;;;5012506;28;20062;-73
2021/12/19 06:33:42;;;;;;;16.67;8.68;;;;;;;;;;5012177;28;20022;-74
2021/12/19 06:36:09;;;;;;;16.70;9.60;;;;;;;;;;5012381;28;20083;-74
2021/12/19 06:38:34;;;;;;;14.85;8.20;;;;;;;;;;5011976;28;20483;-74
2021/12/19 06:41:00;;;;;;;11.30;7.05;;;;;;;;;;5010794;28;20049;-73
2021/12/19 06:43:26;;;;;;;14.80;7.90;;;;;;;;;;5012151;28;20024;-73
2021/12/19 06:45:53;;;;;;;16.00;8.57;;;;;;;;;;5011825;28;20030;-73
2021/12/19 06:48:22;;;;;;;14.60;7.72;;;;;;;;;;5012033;28;20108;-74
2021/12/19 06:50:47;;;;;;;14.20;8.35;;;;;;;;;;5012167;28;20021;-73
2021/12/19 06:53:13;;;;;;;16.10;8.85;;;;;;;;;;5010367;28;20431;-74
2021/12/19 06:55:38;;;;;;;13.40;8.38;;;;;;;;;;5011993;28;20029;-73
2021/12/19 06:58:03;;;;;;;13.95;8.38;;;;;;;;;;5011737;28;20104;-73
2021/12/19 07:00:29;;;;;;;14.02;8.70;;;;;;;;;;5003515;28;20452;-73
2021/12/19 07:02:55;;;;;;;18.02;9.25;;;;;;;;;;5009950;28;20037;-73
2021/12/19 07:05:21;;;;;;;15.95;8.45;;;;;;;;;;5010739;28;20061;-73
2021/12/19 07:07:46;;;;;;;13.85;8.27;;;;;;;;;;5010928;28;20399;-73
2021/12/19 07:10:12;;;;;;;16.40;8.63;;;;;;;;;;5009790;28;20026;-74
2021/12/19 07:12:37;;;;;;;14.90;8.43;;;;;;;;;;5012056;28;20486;-73
2021/12/19 07:15:03;;;;;;;38.08;21.45;;;;;;;;;;5011128;28;20037;-73
2021/12/19 07:17:29;;;;;;;60.63;33.92;;;;;;;;;;5025458;28;20079;-74
2021/12/19 07:19:54;;;;;;;34.75;20.88;;;;;;;;;;5031258;28;20026;-73
2021/12/19 07:22:19;;;;;;;19.15;11.43;;;;;;;;;;5011882;28;20716;-73
2021/12/19 07:24:46;;;;;;;15.70;8.95;;;;;;;;;;5016991;28;20033;-74
2021/12/19 07:27:12;;;;;;;17.83;9.20;;;;;;;;;;5010191;28;20029;-73
2021/12/19 07:29:38;;;;;;;16.17;9.35;;;;;;;;;;5013008;28;20041;-73
2021/12/19 07:32:03;;;;;;;15.75;10.43;;;;;;;;;;5004868;28;20404;-73
2021/12/19 07:34:34;;;;;;;15.40;9.70;;;;;;;;;;5010071;28;20037;-73
2021/12/19 07:37:01;;;;;;;14.85;8.68;;;;;;;;;;5011309;28;20029;-74
2021/12/19 07:40:14;;;;;;;18.15;11.32;;;;;;;;;;5009763;28;20109;-73
2021/12/19 07:42:12;;;;;;;15.05;9.23;;;;;;;;;;4985659;28;20041;-73
2021/12/19 07:44:39;;;;;;;13.07;7.65;;;;;;;;;;5009961;28;20428;-74
2021/12/19 07:47:06;;;;;;;14.82;8.88;;;;;;;;;;5009314;28;20022;-74
2021/12/19 07:49:32;;;;;;;14.50;7.90;;;;;;;;;;5009788;28;20022;-73
2021/12/19 07:51:57;;;;;;;14.48;7.43;;;;;;;;;;5010290;28;20126;-74
2021/12/19 07:54:22;;;;;;;15.40;8.20;;;;;;;;;;5010220;28;20610;-74
2021/12/19 07:56:48;;;;;;;13.40;8.38;;;;;;;;;;5010773;28;20025;-73
2021/12/19 07:59:13;;;;;;;11.10;7.45;;;;;;;;;;5010240;28;20551;-74
2021/12/19 08:01:39;;;;;;;18.27;11.32;;;;;;;;;;5010396;28;20037;-74
2021/12/19 08:04:05;;;;;;;14.27;8.55;;;;;;;;;;5009590;28;20030;-74
2021/12/19 08:06:30;;;;;;;25.75;14.98;;;;;;;;;;5010792;28;20029;-74
2021/12/19 08:08:57;;;;;;;44.13;28.05;;;;;;;;;;5010237;28;20094;-74
2021/12/19 08:11:40;;;;;;;21.83;13.75;;;;;;;;;;5010451;28;20038;-74
2021/12/19 08:14:08;;;;;;;19.10;11.13;;;;;;;;;;5009709;28;20026;-74
2021/12/19 08:16:33;;;;;;;17.92;9.38;;;;;;;;;;5003133;28;20495;-74
2021/12/19 08:18:59;;;;;;;16.60;9.68;;;;;;;;;;5000993;28;20084;-74
2021/12/19 08:21:24;;;;;;;16.80;9.25;;;;;;;;;;5007620;28;20372;-74
2021/12/19 08:23:50;;;;;;;16.42;9.43;;;;;;;;;;5009876;28;20088;-73
2021/12/19 08:26:15;;;;;;;15.60;8.70;;;;;;;;;;5010079;28;20092;-74
2021/12/19 08:28:41;;;;;;;16.67;9.02;;;;;;;;;;5009853;28;20076;-74
2021/12/19 08:31:06;;;;;;;14.55;8.30;;;;;;;;;;5015011;28;20034;-74
2021/12/19 08:33:32;;;;;;;15.75;8.13;;;;;;;;;;5008107;28;20527;-74
2021/12/19 08:35:59;;;;;;;15.63;9.70;;;;;;;;;;5008832;28;20248;-76
2021/12/19 08:38:26;;;;;;;18.30;10.85;;;;;;;;;;5009540;28;20100;-74
2021/12/19 08:40:51;;;;;;;16.60;10.50;;;;;;;;;;5009869;28;20466;-73
2021/12/19 08:43:17;;;;;;;17.85;10.10;;;;;;;;;;4992699;28;20168;-74
2021/12/19 08:45:43;;;;;;;16.30;9.05;;;;;;;;;;5006566;28;20026;-74
2021/12/19 08:48:09;;;;;;;17.70;10.18;;;;;;;;;;5009446;28;20025;-73
2021/12/19 08:50:34;;;;;;;15.38;9.00;;;;;;;;;;5008813;28;20021;-73
2021/12/19 08:53:00;;;;;;;15.60;8.20;;;;;;;;;;5009966;28;20563;-73
2021/12/19 08:55:25;;;;;;;14.15;7.70;;;;;;;;;;5001814;28;20030;-73
2021/12/19 08:57:51;;;;;;;13.25;7.43;;;;;;;;;;5005956;28;20260;-72
2021/12/19 09:00:18;;;;;;;13.48;7.88;;;;;;;;;;5006385;28;20034;-73
2021/12/19 09:02:46;;;;;;;12.40;6.85;;;;;;;;;;5008741;28;20404;-73
2021/12/19 09:05:13;;;;;;;12.38;6.93;;;;;;;;;;5009394;28;20431;-73
2021/12/19 09:07:39;;;;;;;21.33;11.07;;;;;;;;;;5008592;28;20042;-73
2021/12/19 09:10:06;;;;;;;21.60;11.43;;;;;;;;;;5008592;28;20042;-73
2021/12/19 09:12:31;;;;;;;21.05;11.98;;;;;;;;;;5009863;28;20091;-73
2021/12/19 09:14:57;;;;;;;20.30;11.30;;;;;;;;;;5007821;28;20049;-73
2021/12/19 09:17:22;;;;;;;21.70;13.43;;;;;;;;;;5009162;28;20496;-73
2021/12/19 09:19:48;;;;;;;15.90;10.45;;;;;;;;;;5008103;28;20137;-73
2021/12/19 09:22:13;;;;;;;16.33;9.93;;;;;;;;;;5009031;28;20069;-73
2021/12/19 09:24:39;;;;;;;15.23;8.35;;;;;;;;;;5007129;28;20059;-73
2021/12/19 09:27:05;;;;;;;15.75;9.38;;;;;;;;;;5007998;28;20121;-73
2021/12/19 09:29:30;;;;;;;20.88;12.30;;;;;;;;;;5007930;28;20061;-73
2021/12/19 09:31:56;;;;;;;18.50;10.73;;;;;;;;;;5007812;28;20065;-73
2021/12/19 09:34:25;;;;;;;17.55;11.27;;;;;;;;;;5009237;28;20114;-73
2021/12/19 09:36:51;;;;;;;16.13;10.25;;;;;;;;;;5007341;28;20038;-73
2021/12/19 09:39:17;;;;;;;14.80;8.13;;;;;;;;;;5009154;28;20030;-73
2021/12/19 09:41:45;;;;;;;14.52;8.55;;;;;;;;;;5004980;28;20428;-73
2021/12/19 09:44:13;;;;;;;14.80;8.23;;;;;;;;;;5005685;28;20387;-73
2021/12/19 09:46:42;;;;;;;13.68;7.63;;;;;;;;;;5008272;28;20064;-73
2021/12/19 09:49:13;;;;;;;13.80;7.28;;;;;;;;;;5009530;28;20037;-73
2021/12/19 09:51:39;;;;;;;12.55;7.03;;;;;;;;;;5011634;28;20029;-73
2021/12/19 09:54:06;;;;;;;13.52;7.57;;;;;;;;;;5010319;28;20026;-73
2021/12/19 09:56:33;;;;;;;13.48;6.75;;;;;;;;;;5009854;28;20029;-73
2021/12/19 09:59:00;;;;;;;10.93;6.22;;;;;;;;;;5011967;28;20063;-72
2021/12/19 10:01:26;;;;;;;14.30;7.15;;;;;;;;;;5008965;28;20472;-72
2021/12/19 10:03:51;;;;;;;12.65;7.03;;;;;;;;;;5012900;28;20030;-73
2021/12/19 10:06:28;;;;;;;13.77;7.40;;;;;;;;;;5011543;28;20053;-73
2021/12/19 10:09:12;;;;;;;12.45;7.15;;;;;;;;;;5011055;28;20491;-72
2021/12/19 10:11:57;;;;;;;14.30;7.65;;;;;;;;;;5010424;28;20035;-72
2021/12/19 10:14:34;;;;;;;13.48;7.15;;;;;;;;;;5009598;28;20026;-73
2021/12/19 10:17:05;;;;;;;11.15;6.57;;;;;;;;;;5012185;28;20034;-73
2021/12/19 10:19:42;;;;;;;10.75;6.25;;;;;;;;;;5011669;28;20392;-72
2021/12/19 10:22:32;;;;;;;13.00;7.20;;;;;;;;;;5012159;28;20181;-72
2021/12/19 10:25:19;;;;;;;12.77;7.28;;;;;;;;;;5010504;28;20033;-73
2021/12/19 10:27:57;;;;;;;12.63;7.18;;;;;;;;;;4992994;28;20042;-72
2021/12/19 10:30:31;;;;;;;13.38;7.38;;;;;;;;;;5002135;28;20021;-72
2021/12/19 10:33:02;;;;;;;15.23;8.27;;;;;;;;;;5011162;28;20032;-73
2021/12/19 10:35:32;;;;;;;15.27;8.52;;;;;;;;;;5009805;28;20032;-73
2021/12/19 10:37:58;;;;;;;16.60;10.27;;;;;;;;;;5011558;28;20060;-72
2021/12/19 10:40:24;;;;;;;13.73;8.00;;;;;;;;;;5009702;28;20058;-72
2021/12/19 10:42:56;;;;;;;11.13;6.43;;;;;;;;;;5005308;28;20081;-73
2021/12/19 10:45:31;;;;;;;10.85;6.47;;;;;;;;;;5002016;28;20087;-73
2021/12/19 10:48:32;;;;;;;10.88;6.25;;;;;;;;;;5004695;28;20041;-73
2021/12/19 10:51:04;;;;;;;14.20;8.20;;;;;;;;;;4966367;28;20076;-72
2021/12/19 10:53:39;;;;;;;12.10;6.85;;;;;;;;;;5007902;28;20034;-73
2021/12/19 10:56:14;;;;;;;10.80;6.63;;;;;;;;;;5009886;28;20030;-73
2021/12/19 10:58:47;;;;;;;16.13;9.13;;;;;;;;;;5010338;28;20072;-72
2021/12/19 11:01:18;;;;;;;;;;;;;;;;;;5003651;28;20033;-73
2021/12/19 11:03:48;;;;;;;11.13;6.78;;;;;;;;;;5009924;28;19909;-73
2021/12/19 11:06:19;;;;;;;11.95;6.15;;;;;;;;;;5010855;28;20034;-73
2021/12/19 11:08:45;;;;;;;9.02;5.07;;;;;;;;;;5005091;28;20034;-73
2021/12/19 11:11:29;;;;;;;10.02;5.60;;;;;;;;;;5006208;28;20062;-73
2021/12/19 11:13:55;;;;;;;8.05;4.90;;;;;;;;;;5006786;28;20036;-72
2021/12/19 11:16:21;;;;;;;9.43;6.30;;;;;;;;;;5009972;28;20479;-72
2021/12/19 11:18:47;;;;;;;13.32;7.72;;;;;;;;;;5011430;28;20038;-73
2021/12/19 11:21:12;;;;;;;11.70;6.10;;;;;;;;;;5010235;28;20026;-73
2021/12/19 11:23:37;;;;;;;9.00;5.72;;;;;;;;;;5006558;28;20037;-73
2021/12/19 11:26:03;;;;;;;8.80;5.28;;;;;;;;;;5010864;28;20504;-73
2021/12/19 11:28:28;;;;;;;8.85;5.38;;;;;;;;;;5010500;28;20119;-73
2021/12/19 11:30:54;;;;;;;10.80;5.78;;;;;;;;;;5008509;28;20017;-73
2021/12/19 11:33:56;;;;;;;13.95;7.47;;;;;;;;;;5009401;28;20404;-72
2021/12/19 11:36:22;;;;;;;8.57;5.50;;;;;;;;;;5009674;28;20037;-73
2021/12/19 11:38:47;;;;;;;9.40;5.35;;;;;;;;;;5007708;28;20034;-73
2021/12/19 11:41:13;;;;;;;9.13;5.38;;;;;;;;;;5002214;28;20021;-73
2021/12/19 11:43:40;;;;;;;20.48;9.80;;;;;;;;;;5002751;28;20286;-73
2021/12/19 11:46:24;;;;;;;11.60;7.05;;;;;;;;;;5000047;28;20072;-72
2021/12/19 11:49:25;;;;;;;18.70;8.23;;;;;;;;;;4995161;28;20032;-73
2021/12/19 11:52:24;;;;;;;11.50;6.95;;;;;;;;;;4978300;28;20034;-72
2021/12/19 11:55:22;;;;;;;10.40;6.15;;;;;;;;;;5009198;28;20045;-73
2021/12/19 11:58:27;;;;;;;7.30;5.00;;;;;;;;;;5009433;28;20060;-73
2021/12/19 12:00:54;;;;;;;8.02;4.55;;;;;;;;;;4946962;29;20046;-72
2021/12/19 12:03:21;;;;;;;9.13;5.57;;;;;;;;;;4999279;28;20049;-73
2021/12/19 12:05:48;;;;;;;10.18;5.60;;;;;;;;;;5010962;28;20030;-72
2021/12/19 12:08:16;;;;;;;9.10;6.20;;;;;;;;;;5009776;28;20033;-73
2021/12/19 12:10:55;;;;;;;6.30;3.58;;;;;;;;;;5008995;28;20022;-73
2021/12/19 12:13:26;;;;;;;5.15;3.10;;;;;;;;;;5008703;28;20053;-73
2021/12/19 12:16:06;;;;;;;5.32;3.80;;;;;;;;;;5010230;28;20282;-73
2021/12/19 12:18:34;;;;;;;7.03;4.43;;;;;;;;;;5009575;28;20470;-72
2021/12/19 12:21:18;;;;;;;4.38;3.13;;;;;;;;;;5010462;28;20022;-73
2021/12/19 12:24:04;;;;;;;6.30;4.13;;;;;;;;;;5008575;28;20080;-72
2021/12/19 12:26:40;;;;;;;4.95;3.97;;;;;;;;;;5009388;28;20033;-72
2021/12/19 12:29:06;;;;;;;5.40;3.63;;;;;;;;;;5008455;28;20096;-73
2021/12/19 12:31:32;;;;;;;7.30;4.40;;;;;;;;;;5008771;28;20063;-72
2021/12/19 12:33:58;;;;;;;5.13;3.17;;;;;;;;;;5010421;28;20476;-72
2021/12/19 12:36:24;;;;;;;4.60;3.00;;;;;;;;;;5008906;28;20032;-72
2021/12/19 12:38:52;;;;;;;8.68;3.75;;;;;;;;;;5008425;28;20124;-73
2021/12/19 12:41:39;;;;;;;4.72;3.28;;;;;;;;;;5007844;28;20083;-71
2021/12/19 12:44:11;;;;;;;4.75;3.40;;;;;;;;;;5005778;28;20022;-73
2021/12/19 12:46:37;;;;;;;5.50;3.70;;;;;;;;;;5010012;28;20038;-73
2021/12/19 12:49:05;;;;;;;6.43;3.58;;;;;;;;;;5009018;28;20728;-72
2021/12/19 12:51:39;;;;;;;5.57;3.80;;;;;;;;;;5010102;28;20060;-72
2021/12/19 12:54:10;;;;;;;4.72;3.25;;;;;;;;;;5006706;28;20112;-72
2021/12/19 12:56:45;;;;;;;5.70;3.25;;;;;;;;;;5010230;28;20048;-72
2021/12/19 12:59:12;;;;;;;6.40;3.45;;;;;;;;;;5008099;28;20395;-72
2021/12/19 13:04:55;;;;;;;4.97;3.45;;;;;;;;;;5006671;28;20044;-73
2021/12/19 13:07:23;;;;;;;6.88;4.65;;;;;;;;;;5008234;28;20021;-73
2021/12/19 13:10:00;;;;;;;6.80;4.55;;;;;;;;;;5009798;28;20033;-72
2021/12/19 13:12:28;;;;;;;8.95;5.35;;;;;;;;;;5009435;28;20474;-72
2021/12/19 13:15:12;;;;;;;7.00;5.05;;;;;;;;;;5009574;28;20309;-73
2021/12/19 13:17:50;;;;;;;10.65;7.35;;;;;;;;;;5008467;28;20126;-72
2021/12/19 13:20:19;;;;;;;6.07;4.00;;;;;;;;;;5008943;28;20022;-72
2021/12/19 13:22:48;;;;;;;18.25;10.20;;;;;;;;;;5008669;28;20033;-72
2021/12/19 13:25:40;;;;;;;14.32;8.05;;;;;;;;;;5013188;28;20030;-73
2021/12/19 13:28:10;;;;;;;7.32;4.28;;;;;;;;;;5012577;28;20116;-72
2021/12/19 13:30:41;;;;;;;11.45;7.28;;;;;;;;;;5003278;28;20449;-72
2021/12/19 13:33:13;;;;;;;7.00;4.40;;;;;;;;;;5013415;28;20101;-72
2021/12/19 13:35:42;;;;;;;6.03;3.70;;;;;;;;;;5011013;28;20117;-73
2021/12/19 13:38:18;;;;;;;5.60;4.00;;;;;;;;;;5012338;28;20501;-72
2021/12/19 13:40:51;;;;;;;8.02;4.53;;;;;;;;;;5011690;28;20408;-73
2021/12/19 13:43:19;;;;;;;4.47;3.35;;;;;;;;;;5011516;28;20053;-72
2021/12/19 13:45:49;;;;;;;5.97;3.65;;;;;;;;;;5012971;28;20279;-72
2021/12/19 13:48:30;;;;;;;6.00;3.95;;;;;;;;;;5011712;28;20036;-72
2021/12/19 13:51:05;;;;;;;9.27;6.25;;;;;;;;;;5012770;28;20045;-72
2021/12/19 13:53:32;;;;;;;6.63;4.78;;;;;;;;;;5012283;28;20026;-73
2021/12/19 13:56:02;;;;;;;8.93;4.63;;;;;;;;;;5013357;28;20103;-72
2021/12/19 13:58:30;;;;;;;6.72;4.25;;;;;;;;;;5012254;28;20172;-72
2021/12/19 14:00:56;;;;;;;8.60;4.30;;;;;;;;;;5010017;28;20423;-72
2021/12/19 14:03:37;;;;;;;6.10;3.97;;;;;;;;;;5011898;28;20030;-71
2021/12/19 14:06:03;;;;;;;5.20;3.40;;;;;;;;;;5012769;28;20395;-72
2021/12/19 14:08:31;;;;;;;5.13;3.50;;;;;;;;;;5011508;28;20045;-72
2021/12/19 14:11:17;;;;;;;5.07;3.28;;;;;;;;;;5012949;28;20018;-73
2021/12/19 14:13:57;;;;;;;5.60;3.05;;;;;;;;;;5010573;28;20038;-72
2021/12/19 14:16:46;;;;;;;4.88;3.35;;;;;;;;;;5012527;28;20048;-73
2021/12/19 14:19:35;;;;;;;6.38;4.13;;;;;;;;;;5012093;28;20030;-72
2021/12/19 14:22:04;;;;;;;5.70;3.67;;;;;;;;;;5013200;28;20032;-73
2021/12/19 14:24:31;;;;;;;5.78;3.70;;;;;;;;;;5008254;28;20029;-72
2021/12/19 14:27:08;;;;;;;4.55;3.22;;;;;;;;;;5011705;28;20570;-73
2021/12/19 14:29:34;;;;;;;7.10;4.50;;;;;;;;;;5011418;28;20510;-72
2021/12/19 14:32:06;;;;;;;6.60;4.70;;;;;;;;;;5009079;28;20124;-73
2021/12/19 14:34:34;;;;;;;7.67;4.93;;;;;;;;;;4993162;28;20038;-72
2021/12/19 14:37:25;;;;;;;7.78;4.55;;;;;;;;;;4992570;28;20080;-73
2021/12/19 14:40:04;;;;;;;6.97;4.05;;;;;;;;;;5003936;28;20092;-72
2021/12/19 14:42:35;;;;;;;7.35;4.93;;;;;;;;;;5010866;28;20037;-72
2021/12/19 14:45:05;;;;;;;7.45;4.70;;;;;;;;;;5014394;28;20024;-72
2021/12/19 14:47:43;;;;;;;7.10;4.28;;;;;;;;;;5035560;23;20048;-73
2021/12/19 14:50:21;;;;;;;10.15;6.00;;;;;;;;;;5030279;28;20030;-73
2021/12/19 14:53:21;;;;;;;11.40;6.10;;;;;;;;;;5032071;28;20425;-73
2021/12/19 14:55:49;;;;;;;6.40;3.90;;;;;;;;;;5015758;28;20064;-73
2021/12/19 14:58:16;;;;;;;11.15;6.15;;;;;;;;;;5030720;28;20034;-73
2021/12/19 15:00:51;;;;;;;12.40;5.82;;;;;;;;;;5025776;28;20021;-73
2021/12/19 15:03:18;;;;;;;6.13;3.90;;;;;;;;;;5033673;28;20518;-73
2021/12/19 15:05:43;;;;;;;6.45;3.78;;;;;;;;;;5029327;28;20059;-73
2021/12/19 15:08:13;;;;;;;5.47;3.78;;;;;;;;;;5031452;28;20049;-73
2021/12/19 15:10:38;;;;;;;8.52;4.93;;;;;;;;;;5028312;28;20120;-73
2021/12/19 15:13:04;;;;;;;9.45;5.85;;;;;;;;;;5030040;28;20439;-73
2021/12/19 15:15:31;;;;;;;8.18;5.03;;;;;;;;;;5014640;28;20112;-73
2021/12/19 15:17:56;;;;;;;6.40;4.63;;;;;;;;;;5025255;28;20360;-73
2021/12/19 15:20:21;;;;;;;7.60;4.90;;;;;;;;;;5029522;28;20436;-73
2021/12/19 15:22:47;;;;;;;7.53;5.03;;;;;;;;;;5031471;28;20075;-73
2021/12/19 15:25:13;;;;;;;7.45;5.00;;;;;;;;;;5030327;28;20510;-73
2021/12/19 15:27:42;;;;;;;10.00;5.93;;;;;;;;;;5031368;28;20033;-74
2021/12/19 15:30:09;;;;;;;10.05;6.22;;;;;;;;;;5030974;28;20032;-73
2021/12/19 15:32:35;;;;;;;9.05;5.60;;;;;;;;;;5030953;28;20120;-73
2021/12/19 15:35:06;;;;;;;8.82;5.93;;;;;;;;;;5031097;28;20420;-73
2021/12/19 15:37:31;;;;;;;11.75;6.80;;;;;;;;;;5031566;28;20071;-73
2021/12/19 15:39:57;;;;;;;7.95;5.57;;;;;;;;;;5031083;28;20033;-73
2021/12/19 15:42:22;;;;;;;9.30;6.22;;;;;;;;;;5031252;28;20052;-73
2021/12/19 15:44:48;;;;;;;10.60;7.18;;;;;;;;;;5030680;28;20033;-73
2021/12/19 15:47:13;;;;;;;11.10;6.75;;;;;;;;;;5029126;28;20471;-73